createdAt,value
2018-05-24T00:01:00.492Z,81.85
2018-05-24T00:02:22.816Z,81.95
2018-05-24T00:03:23.461Z,82.32
2018-05-24T00:04:23.093Z,82.42
2018-05-24T00:05:22.953Z,82.52
2018-05-24T00:06:23.319Z,82.32
2018-05-24T00:07:22.833Z,82.42
2018-05-24T00:08:24.104Z,82.52
2018-05-24T00:09:44.259Z,82.71
2018-05-24T00:10:45.044Z,82.71
2018-05-24T00:11:45.253Z,82.90
2018-05-24T00:12:44.991Z,82.81
2018-05-24T00:14:05.920Z,83.00
2018-05-24T00:15:06.414Z,83.00
2018-05-24T00:16:28.155Z,83.09
2018-05-24T00:17:28.812Z,83.19
2018-05-24T00:18:28.282Z,83.29
2018-05-24T00:19:29.057Z,83.29
2018-05-24T00:20:29.295Z,83.29
2018-05-24T00:21:28.591Z,83.38
2018-05-24T00:22:29.110Z,83.38
2018-05-24T00:23:50.494Z,83.48
2018-05-24T00:24:51.151Z,83.48
2018-05-24T00:26:13.372Z,83.48
2018-05-24T00:27:36.342Z,83.86
2018-05-24T00:28:36.958Z,83.76
2018-05-24T00:29:36.913Z,83.86
2018-05-24T00:30:36.491Z,83.76
2018-05-24T00:31:36.966Z,83.76
2018-05-24T00:32:37.802Z,83.95
2018-05-24T00:34:20.268Z,83.92
2018-05-24T00:35:21.714Z,83.86
2018-05-24T00:36:20.407Z,83.92
2018-05-24T00:37:20.794Z,83.92
2018-05-24T00:38:20.203Z,83.72
2018-05-24T00:39:20.562Z,83.82
2018-05-24T00:40:20.960Z,83.82
2018-05-24T00:41:20.666Z,83.92
2018-05-24T00:42:21.118Z,84.11
2018-05-24T00:43:41.807Z,83.92
2018-05-24T00:44:42.654Z,83.82
2018-05-24T00:45:42.362Z,83.92
2018-05-24T00:46:42.078Z,84.11
2018-05-24T00:48:47.045Z,84.20
2018-05-24T00:50:08.656Z,84.49
2018-05-24T00:51:09.003Z,84.49
2018-05-24T00:52:29.503Z,84.58
2018-05-24T00:53:29.885Z,84.68
2018-05-24T00:54:30.090Z,84.68
2018-05-24T00:55:29.492Z,84.88
2018-05-24T00:56:30.092Z,84.78
2018-05-24T00:57:30.486Z,84.78
2018-05-24T00:58:29.914Z,84.88
2018-05-24T00:59:30.848Z,84.97
2018-05-24T01:00:31.801Z,84.78
2018-05-24T01:01:30.576Z,84.88
2018-05-24T01:02:30.445Z,84.74
2018-05-24T01:03:29.947Z,84.92
2018-05-24T01:04:30.626Z,84.92
2018-05-24T01:05:30.649Z,84.83
2018-05-24T01:06:31.978Z,84.92
2018-05-24T01:07:31.095Z,84.74
2018-05-24T01:08:30.175Z,85.02
2018-05-24T01:09:29.625Z,84.83
2018-05-24T01:10:30.269Z,85.21
2018-05-24T01:11:29.604Z,85.02
2018-05-24T01:12:30.443Z,85.02
2018-05-24T01:13:30.348Z,85.21
2018-05-24T01:14:30.483Z,85.02
2018-05-24T01:15:30.000Z,85.02
2018-05-24T01:16:29.652Z,85.12
2018-05-24T01:17:30.255Z,85.21
2018-05-24T01:18:29.789Z,85.02
2018-05-24T01:19:30.244Z,85.21
2018-05-24T01:20:29.854Z,85.12
2018-05-24T01:21:30.331Z,84.92
2018-05-24T01:22:51.980Z,85.02
2018-05-24T01:23:53.104Z,84.88
2018-05-24T01:25:13.304Z,84.69
2018-05-24T01:26:36.084Z,84.41
2018-05-24T01:27:36.794Z,84.41
2018-05-24T01:28:36.190Z,84.59
2018-05-24T01:29:37.358Z,84.50
2018-05-24T01:30:37.514Z,84.41
2018-05-24T01:31:36.905Z,84.12
2018-05-24T01:32:36.686Z,84.41
2018-05-24T01:33:36.661Z,84.02
2018-05-24T01:34:36.031Z,84.12
2018-05-24T01:35:36.762Z,84.22
2018-05-24T01:36:57.691Z,83.93
2018-05-24T01:37:58.261Z,83.54
2018-05-24T01:38:57.707Z,83.83
2018-05-24T01:39:58.148Z,83.64
2018-05-24T01:41:18.943Z,83.50
2018-05-24T01:42:19.627Z,83.22
2018-05-24T01:43:19.286Z,83.03
2018-05-24T01:44:18.900Z,82.83
2018-05-24T01:45:20.891Z,82.83
2018-05-24T01:46:19.789Z,83.03
2018-05-24T01:47:19.316Z,82.83
2018-05-24T01:48:19.770Z,83.98
2018-05-24T01:49:19.223Z,82.93
2018-05-24T01:50:19.663Z,83.22
2018-05-24T01:52:01.428Z,82.26
2018-05-24T01:53:02.123Z,82.26
2018-05-24T01:54:01.922Z,81.97
2018-05-24T01:55:23.807Z,81.78
2018-05-24T01:56:25.146Z,81.30
2018-05-24T01:57:24.260Z,81.59
2018-05-24T01:58:45.583Z,80.73
2018-05-24T02:00:07.597Z,80.16
2018-05-24T02:01:08.490Z,81.02
2018-05-24T02:02:08.469Z,80.30
2018-05-24T02:03:08.239Z,80.50
2018-05-24T02:04:07.654Z,80.50
2018-05-24T02:05:08.144Z,80.40
2018-05-24T02:06:30.342Z,80.69
2018-05-24T02:07:31.042Z,80.69
2018-05-24T02:08:51.808Z,80.79
2018-05-24T02:09:53.719Z,81.68
2018-05-24T02:10:52.219Z,81.49
2018-05-24T02:12:35.098Z,81.59
2018-05-24T02:13:36.971Z,81.59
2018-05-24T02:14:35.543Z,81.74
2018-05-24T02:15:35.135Z,82.07
2018-05-24T02:16:35.921Z,82.17
2018-05-24T02:17:35.607Z,81.68
2018-05-24T02:18:35.172Z,81.59
2018-05-24T02:19:35.682Z,81.88
2018-05-24T02:20:35.478Z,82.17
2018-05-24T02:21:35.031Z,81.59
2018-05-24T02:22:35.761Z,81.97
2018-05-24T02:23:35.650Z,82.35
2018-05-24T02:24:35.221Z,82.17
2018-05-24T02:25:35.696Z,82.26
2018-05-24T02:26:35.834Z,82.54
2018-05-24T02:27:35.522Z,82.26
2018-05-24T02:28:56.434Z,82.45
2018-05-24T02:29:57.123Z,82.54
2018-05-24T02:30:56.721Z,82.45
2018-05-24T02:31:57.052Z,82.35
2018-05-24T02:32:57.414Z,82.07
2018-05-24T02:33:56.933Z,81.59
2018-05-24T02:34:58.116Z,82.45
2018-05-24T02:35:56.797Z,82.26
2018-05-24T02:36:57.350Z,81.30
2018-05-24T02:38:18.439Z,81.93
2018-05-24T02:39:19.365Z,81.93
2018-05-24T02:40:40.184Z,82.03
2018-05-24T02:41:40.782Z,82.41
2018-05-24T02:42:40.424Z,81.93
2018-05-24T02:43:41.201Z,82.22
2018-05-24T02:45:45.049Z,82.31
2018-05-24T02:46:46.036Z,82.12
2018-05-24T02:47:45.563Z,82.03
2018-05-24T02:48:45.627Z,82.22
2018-05-24T02:49:45.471Z,81.93
2018-05-24T02:51:06.948Z,81.74
2018-05-24T02:52:06.578Z,81.26
2018-05-24T02:53:06.140Z,82.12
2018-05-24T02:54:29.815Z,81.74
2018-05-24T02:55:30.389Z,81.93
2018-05-24T02:56:30.946Z,81.65
2018-05-24T02:57:30.758Z,82.22
2018-05-24T02:58:30.385Z,81.93
2018-05-24T02:59:30.702Z,82.12
2018-05-24T03:00:30.626Z,82.22
2018-05-24T03:01:30.322Z,82.31
2018-05-24T03:03:13.953Z,81.97
2018-05-24T03:04:14.715Z,82.07
2018-05-24T03:05:14.183Z,81.97
2018-05-24T03:06:14.793Z,81.74
2018-05-24T03:08:01.198Z,81.74
2018-05-24T03:09:02.031Z,81.84
2018-05-24T03:10:01.522Z,81.93
2018-05-24T03:11:02.320Z,81.36
2018-05-24T03:12:02.008Z,81.26
2018-05-24T03:13:02.251Z,80.98
2018-05-24T03:14:23.660Z,80.69
2018-05-24T03:15:24.452Z,80.88
2018-05-24T03:16:23.965Z,80.88
2018-05-24T03:17:23.608Z,80.21
2018-05-24T03:18:24.501Z,80.21
2018-05-24T03:19:24.486Z,80.02
2018-05-24T03:20:24.317Z,79.64
2018-05-24T03:21:24.369Z,79.44
2018-05-24T03:22:24.187Z,79.35
2018-05-24T03:23:24.092Z,78.87
2018-05-24T03:24:45.146Z,79.06
2018-05-24T03:25:46.020Z,78.87
2018-05-24T03:26:46.492Z,78.30
2018-05-24T03:27:46.270Z,77.92
2018-05-24T03:28:46.000Z,77.34
2018-05-24T03:29:46.417Z,77.25
2018-05-24T03:30:46.536Z,77.06
2018-05-24T03:31:46.613Z,76.77
2018-05-24T03:32:46.237Z,76.77
2018-05-24T03:33:57.378Z,76.96
2018-05-24T03:34:46.289Z,77.06
2018-05-24T03:35:46.733Z,76.96
2018-05-24T03:36:45.274Z,76.96
2018-05-24T03:37:46.132Z,76.86
2018-05-24T03:39:08.361Z,77.34
2018-05-24T03:40:08.956Z,77.63
2018-05-24T03:41:08.852Z,77.34
2018-05-24T03:42:08.538Z,78.01
2018-05-24T03:43:31.838Z,77.25
2018-05-24T03:44:32.417Z,77.34
2018-05-24T03:45:31.939Z,77.72
2018-05-24T03:46:42.803Z,77.15
2018-05-24T03:47:32.593Z,78.11
2018-05-24T03:48:32.053Z,77.82
2018-05-24T03:49:53.725Z,77.92
2018-05-24T03:50:54.494Z,78.68
2018-05-24T03:51:54.430Z,77.92
2018-05-24T03:52:54.179Z,78.68
2018-05-24T03:53:54.095Z,78.39
2018-05-24T03:55:16.228Z,77.63
2018-05-24T03:56:16.619Z,78.11
2018-05-24T03:57:15.410Z,77.72
2018-05-24T03:58:17.686Z,77.63
2018-05-24T03:59:17.517Z,77.53
2018-05-24T04:00:16.487Z,77.92
2018-05-24T04:01:37.839Z,77.72
2018-05-24T04:02:40.053Z,78.01
2018-05-24T04:03:38.522Z,77.53
2018-05-24T04:04:59.797Z,77.82
2018-05-24T04:06:00.903Z,78.30
2018-05-24T04:07:00.166Z,77.63
2018-05-24T04:07:59.799Z,78.49
2018-05-24T04:09:21.778Z,77.44
2018-05-24T04:10:21.655Z,78.20
2018-05-24T04:11:22.420Z,78.97
2018-05-24T04:12:44.094Z,79.06
2018-05-24T04:13:44.543Z,79.06
2018-05-24T04:15:05.821Z,78.11
2018-05-24T04:16:06.625Z,78.49
2018-05-24T04:17:06.161Z,78.20
2018-05-24T04:18:50.409Z,78.11
2018-05-24T04:19:50.049Z,78.01
2018-05-24T04:20:49.733Z,78.30
2018-05-24T04:21:50.364Z,76.86
2018-05-24T04:22:49.999Z,77.72
2018-05-24T04:23:49.411Z,78.01
2018-05-24T04:24:50.881Z,78.78
2018-05-24T04:25:49.573Z,77.72
2018-05-24T04:26:50.042Z,77.15
2018-05-24T04:27:49.523Z,78.43
2018-05-24T04:28:51.019Z,78.24
2018-05-24T04:29:49.842Z,77.86
2018-05-24T04:30:49.775Z,79.39
2018-05-24T04:32:12.193Z,79.10
2018-05-24T04:33:34.229Z,80.25
2018-05-24T04:34:35.538Z,80.25
2018-05-24T04:35:56.615Z,81.40
2018-05-24T04:36:57.488Z,81.54
2018-05-24T04:37:57.211Z,81.54
2018-05-24T04:38:56.959Z,80.58
2018-05-24T04:40:21.059Z,81.82
2018-05-24T04:41:20.829Z,82.20
2018-05-24T04:42:21.389Z,82.49
2018-05-24T04:43:20.328Z,82.87
2018-05-24T04:44:20.336Z,83.36
2018-05-24T04:45:20.899Z,82.87
2018-05-24T04:46:46.005Z,83.39
2018-05-24T04:47:42.636Z,84.16
2018-05-24T04:48:42.272Z,83.97
2018-05-24T04:50:26.631Z,83.97
2018-05-24T04:51:27.147Z,83.20
2018-05-24T04:52:26.716Z,84.06
2018-05-24T04:53:27.466Z,84.35
2018-05-24T04:54:28.110Z,83.87
2018-05-24T04:55:27.368Z,83.59
2018-05-24T04:56:27.273Z,83.78
2018-05-24T04:57:26.932Z,84.26
2018-05-24T04:58:26.887Z,83.39
2018-05-24T04:59:27.410Z,83.68
2018-05-24T05:00:27.679Z,83.39
2018-05-24T05:01:27.287Z,83.39
2018-05-24T05:02:50.673Z,83.30
2018-05-24T05:03:49.130Z,83.78
2018-05-24T05:04:49.030Z,83.87
2018-05-24T05:05:49.306Z,83.49
2018-05-24T05:06:49.360Z,83.06
2018-05-24T05:07:50.085Z,82.87
2018-05-24T05:08:48.898Z,83.20
2018-05-24T05:09:48.842Z,83.11
2018-05-24T05:11:31.995Z,83.78
2018-05-24T05:12:31.583Z,83.20
2018-05-24T05:13:32.219Z,83.01
2018-05-24T05:14:55.799Z,83.39
2018-05-24T05:15:57.275Z,83.01
2018-05-24T05:16:56.710Z,83.01
2018-05-24T05:17:56.801Z,82.63
2018-05-24T05:19:17.907Z,84.16
2018-05-24T05:20:18.526Z,83.59
2018-05-24T05:21:18.937Z,83.59
2018-05-24T05:22:18.522Z,84.30
2018-05-24T05:24:02.559Z,84.39
2018-05-24T05:25:03.419Z,84.35
2018-05-24T05:26:03.039Z,84.11
2018-05-24T05:27:02.711Z,84.68
2018-05-24T05:28:02.461Z,84.58
2018-05-24T05:29:03.406Z,84.68
2018-05-24T05:30:24.729Z,85.01
2018-05-24T05:31:47.897Z,84.53
2018-05-24T05:32:47.931Z,84.82
2018-05-24T05:33:48.008Z,84.53
2018-05-24T05:35:09.671Z,84.82
2018-05-24T05:36:09.512Z,84.53
2018-05-24T05:37:10.237Z,84.53
2018-05-24T05:38:10.187Z,84.72
2018-05-24T05:39:31.968Z,84.77
2018-05-24T05:41:15.915Z,84.58
2018-05-24T05:42:38.205Z,84.14
2018-05-24T05:43:39.063Z,83.94
2018-05-24T05:44:38.838Z,83.65
2018-05-24T05:45:38.906Z,83.41
2018-05-24T05:46:38.908Z,82.93
2018-05-24T05:47:38.420Z,82.26
2018-05-24T05:48:38.107Z,81.68
2018-05-24T05:49:38.101Z,81.53
2018-05-24T05:50:38.780Z,80.38
2018-05-24T05:51:38.676Z,79.52
2018-05-24T05:52:38.420Z,80.09
2018-05-24T05:53:38.558Z,81.49
2018-05-24T05:54:39.046Z,82.31
2018-05-24T05:55:38.546Z,83.18
2018-05-24T05:56:38.230Z,83.42
2018-05-24T05:57:38.638Z,83.71
2018-05-24T05:58:38.295Z,83.81
2018-05-24T05:59:38.253Z,83.71
2018-05-24T06:00:38.656Z,84.00
2018-05-24T06:02:00.261Z,84.48
2018-05-24T06:03:00.787Z,84.33
2018-05-24T06:04:01.018Z,83.65
2018-05-24T06:05:00.897Z,83.70
2018-05-24T06:06:00.411Z,83.37
2018-05-24T06:07:01.140Z,83.47
2018-05-24T06:08:01.463Z,83.65
2018-05-24T06:09:02.052Z,83.51
2018-05-24T06:10:01.039Z,83.22
2018-05-24T06:11:22.505Z,82.68
2018-05-24T06:12:45.239Z,81.82
2018-05-24T06:13:46.050Z,82.05
2018-05-24T06:14:45.749Z,80.84
2018-05-24T06:15:46.230Z,79.50
2018-05-24T06:16:46.820Z,79.40
2018-05-24T06:17:45.552Z,76.84
2018-05-24T06:18:45.195Z,75.15
2018-05-24T06:19:46.280Z,75.02
2018-05-24T06:20:46.111Z,74.82
2018-05-24T06:21:46.007Z,74.63
2018-05-24T06:22:45.604Z,75.46
2018-05-24T06:23:46.073Z,75.59
2018-05-24T06:24:45.574Z,73.99
2018-05-24T06:25:45.097Z,71.04
2018-05-24T06:26:45.707Z,69.70
2018-05-24T06:27:46.367Z,67.33
2018-05-24T06:29:06.547Z,64.76
2018-05-24T06:30:08.184Z,64.50
2018-05-24T06:31:07.065Z,63.73
2018-05-24T06:32:06.853Z,63.79
2018-05-24T06:33:07.344Z,65.85
2018-05-24T06:34:28.336Z,68.93
2018-05-24T06:35:29.310Z,68.64
2018-05-24T06:36:29.183Z,70.05
2018-05-24T06:37:29.062Z,72.61
2018-05-24T06:38:28.881Z,73.92
2018-05-24T06:39:29.344Z,75.37
2018-05-24T06:40:28.966Z,76.65
2018-05-24T06:41:28.587Z,72.55
2018-05-24T06:42:29.405Z,71.14
2018-05-24T06:43:29.108Z,68.52
2018-05-24T06:44:29.726Z,65.56
2018-05-24T06:45:51.411Z,63.82
2018-05-24T06:46:52.298Z,63.73
2018-05-24T06:47:52.450Z,63.92
2018-05-24T06:48:52.136Z,63.44
2018-05-24T06:49:51.801Z,63.18
2018-05-24T06:50:51.811Z,63.57
2018-05-24T06:51:52.257Z,63.57
2018-05-24T06:52:52.097Z,61.99
2018-05-24T06:53:52.071Z,60.38
2018-05-24T06:54:51.856Z,59.12
2018-05-24T06:55:51.886Z,59.05
2018-05-24T06:56:51.563Z,57.29
2018-05-24T06:57:52.573Z,57.93
2018-05-24T06:58:52.378Z,58.12
2018-05-24T06:59:52.286Z,58.35
2018-05-24T07:00:52.143Z,58.06
2018-05-24T07:01:52.082Z,58.25
2018-05-24T07:03:16.125Z,57.77
2018-05-24T07:04:38.557Z,57.31
2018-05-24T07:05:38.357Z,57.60
2018-05-24T07:06:37.891Z,56.09
2018-05-24T07:07:38.653Z,55.87
2018-05-24T07:08:38.509Z,55.99
2018-05-24T07:09:38.242Z,56.18
2018-05-24T07:10:38.187Z,55.51
2018-05-24T07:11:59.421Z,55.36
2018-05-24T07:13:21.277Z,54.30
2018-05-24T07:14:21.494Z,53.53
2018-05-24T07:15:21.419Z,53.91
2018-05-24T07:16:21.370Z,53.65
2018-05-24T07:17:21.374Z,53.49
2018-05-24T07:18:21.413Z,53.09
2018-05-24T07:19:21.279Z,52.20
2018-05-24T07:20:21.424Z,52.66
2018-05-24T07:21:21.432Z,53.23
2018-05-24T07:22:20.965Z,54.03
2018-05-24T07:23:21.702Z,53.26
2018-05-24T07:24:21.828Z,53.09
2018-05-24T07:25:21.700Z,52.25
2018-05-24T07:26:21.519Z,51.31
2018-05-24T07:27:21.122Z,51.21
2018-05-24T07:28:22.278Z,51.28
2018-05-24T07:29:43.143Z,51.86
2018-05-24T07:30:43.980Z,51.64
2018-05-24T07:31:43.635Z,51.93
2018-05-24T07:32:43.222Z,51.93
2018-05-24T07:33:43.779Z,52.12
2018-05-24T07:34:43.403Z,52.15
2018-05-24T07:36:05.411Z,52.12
2018-05-24T07:37:05.824Z,52.03
2018-05-24T07:38:05.682Z,51.28
2018-05-24T07:39:28.028Z,50.89
2018-05-24T07:40:50.054Z,51.96
2018-05-24T07:42:54.592Z,51.67
2018-05-24T07:43:55.340Z,51.57
2018-05-24T07:44:55.741Z,51.69
2018-05-24T07:45:55.556Z,50.89
2018-05-24T07:46:55.288Z,52.42
2018-05-24T07:47:55.144Z,52.42
2018-05-24T07:48:54.928Z,52.61
2018-05-24T07:49:55.005Z,53.67
2018-05-24T07:50:55.898Z,53.36
2018-05-24T07:51:55.836Z,54.59
2018-05-24T07:52:55.634Z,54.26
2018-05-24T07:53:55.645Z,53.31
2018-05-24T07:54:55.538Z,52.76
2018-05-24T07:55:55.759Z,52.28
2018-05-24T07:56:55.596Z,52.20
2018-05-24T07:57:56.691Z,50.96
2018-05-24T07:58:55.712Z,50.51
2018-05-24T08:00:16.728Z,50.14
2018-05-24T08:01:39.865Z,48.71
2018-05-24T08:02:41.024Z,48.97
2018-05-24T08:03:42.059Z,48.97
2018-05-24T08:04:40.725Z,49.10
2018-05-24T08:06:01.501Z,48.30
2018-05-24T08:07:02.282Z,49.05
2018-05-24T08:08:02.086Z,49.51
2018-05-24T08:09:03.189Z,50.48
2018-05-24T08:10:02.148Z,50.72
2018-05-24T08:11:23.402Z,51.57
2018-05-24T08:12:24.374Z,52.73
2018-05-24T08:13:24.360Z,52.51
2018-05-24T08:14:24.057Z,53.09
2018-05-24T08:15:23.878Z,52.76
2018-05-24T08:16:23.386Z,52.11
2018-05-24T08:17:23.912Z,51.84
2018-05-24T08:18:23.588Z,50.38
2018-05-24T08:19:23.530Z,51.06
2018-05-24T08:20:23.604Z,50.84
2018-05-24T08:21:24.533Z,51.11
2018-05-24T08:22:24.335Z,52.56
2018-05-24T08:23:24.202Z,52.34
2018-05-24T08:24:48.855Z,52.11
2018-05-24T08:25:49.752Z,51.62
2018-05-24T08:26:50.166Z,51.55
2018-05-24T08:27:48.850Z,51.01
2018-05-24T08:28:48.471Z,50.16
2018-05-24T08:29:49.073Z,49.78
2018-05-24T08:30:48.726Z,48.90
2018-05-24T08:31:49.383Z,48.61
2018-05-24T08:32:49.175Z,48.51
2018-05-24T08:33:48.945Z,48.32
2018-05-24T08:34:48.914Z,48.41
2018-05-24T08:35:48.902Z,48.58
2018-05-24T08:37:34.651Z,48.71
2018-05-24T08:38:36.392Z,48.32
2018-05-24T08:39:35.475Z,48.58
2018-05-24T08:40:35.809Z,49.24
2018-05-24T08:41:35.900Z,49.73
2018-05-24T08:42:59.186Z,49.92
2018-05-24T08:43:58.876Z,50.02
2018-05-24T08:44:58.893Z,50.21
2018-05-24T08:45:58.785Z,49.80
2018-05-24T08:46:58.600Z,50.48
2018-05-24T08:48:21.584Z,50.04
2018-05-24T08:49:21.441Z,49.85
2018-05-24T08:50:44.523Z,48.32
2018-05-24T08:51:45.747Z,48.22
2018-05-24T08:52:44.406Z,49.00
2018-05-24T08:53:45.139Z,48.90
2018-05-24T08:54:45.163Z,48.68
2018-05-24T08:56:07.024Z,48.90
2018-05-24T08:57:06.752Z,48.71
2018-05-24T08:58:27.988Z,48.34
2018-05-24T08:59:27.713Z,48.63
2018-05-24T09:00:28.388Z,48.36
2018-05-24T09:01:28.084Z,47.42
2018-05-24T09:02:29.041Z,47.32
2018-05-24T09:03:28.037Z,47.13
2018-05-24T09:04:28.057Z,46.83
2018-05-24T09:05:28.127Z,47.25
2018-05-24T09:06:28.305Z,46.17
2018-05-24T09:07:29.764Z,46.71
2018-05-24T09:08:29.074Z,47.98
2018-05-24T09:09:27.584Z,48.05
2018-05-24T09:10:29.316Z,49.19
2018-05-24T09:11:28.386Z,49.56
2018-05-24T09:12:27.966Z,51.26
2018-05-24T09:13:27.731Z,52.11
2018-05-24T09:14:28.711Z,52.88
2018-05-24T09:15:27.970Z,53.41
2018-05-24T09:16:49.445Z,54.58
2018-05-24T09:17:49.901Z,55.08
2018-05-24T09:18:49.937Z,55.06
2018-05-24T09:19:49.486Z,55.06
2018-05-24T09:20:50.061Z,55.06
2018-05-24T09:21:50.354Z,54.84
2018-05-24T09:22:50.704Z,54.94
2018-05-24T09:24:11.431Z,55.10
2018-05-24T09:25:12.726Z,55.30
2018-05-24T09:26:12.435Z,55.46
2018-05-24T09:27:12.022Z,56.24
2018-05-24T09:28:12.280Z,56.98
2018-05-24T09:29:11.896Z,57.73
2018-05-24T09:30:33.405Z,58.98
2018-05-24T09:31:34.170Z,59.73
2018-05-24T09:32:55.358Z,61.18
2018-05-24T09:33:56.324Z,60.21
2018-05-24T09:34:57.247Z,59.86
2018-05-24T09:35:56.027Z,60.44
2018-05-24T09:37:20.299Z,59.01
2018-05-24T09:38:21.280Z,58.82
2018-05-24T09:39:43.658Z,57.98
2018-05-24T09:40:44.129Z,57.69
2018-05-24T09:41:44.168Z,57.43
2018-05-24T09:42:44.144Z,56.85
2018-05-24T09:43:44.660Z,57.33
2018-05-24T09:45:49.536Z,55.18
2018-05-24T09:46:49.644Z,54.31
2018-05-24T09:47:49.241Z,54.41
2018-05-24T09:48:50.132Z,54.19
2018-05-24T09:49:49.820Z,55.64
2018-05-24T09:50:49.497Z,54.96
2018-05-24T09:51:50.570Z,55.13
2018-05-24T09:52:49.224Z,55.40
2018-05-24T09:54:12.420Z,55.68
2018-05-24T09:55:35.919Z,56.14
2018-05-24T09:56:36.474Z,57.01
2018-05-24T09:57:36.170Z,57.98
2018-05-24T09:58:36.286Z,58.95
2018-05-24T09:59:37.481Z,58.56
2018-05-24T10:00:36.353Z,58.56
2018-05-24T10:01:35.985Z,58.17
2018-05-24T10:02:36.671Z,58.47
2018-05-24T10:03:36.456Z,58.56
2018-05-24T10:04:36.372Z,59.14
2018-05-24T10:06:19.624Z,58.37
2018-05-24T10:07:20.844Z,57.95
2018-05-24T10:08:20.748Z,59.21
2018-05-24T10:09:20.449Z,58.82
2018-05-24T10:10:20.218Z,58.44
2018-05-24T10:11:20.872Z,58.70
2018-05-24T10:12:20.556Z,59.66
2018-05-24T10:13:20.505Z,60.02
2018-05-24T10:14:20.164Z,59.83
2018-05-24T10:15:19.751Z,59.60
2018-05-24T10:16:21.342Z,60.57
2018-05-24T10:17:20.432Z,61.70
2018-05-24T10:18:21.235Z,62.47
2018-05-24T10:19:19.998Z,63.60
2018-05-24T10:20:19.992Z,64.18
2018-05-24T10:21:20.972Z,64.66
2018-05-24T10:22:42.083Z,64.86
2018-05-24T10:23:43.402Z,64.86
2018-05-24T10:24:42.450Z,65.53
2018-05-24T10:25:42.404Z,65.53
2018-05-24T10:26:42.864Z,65.62
2018-05-24T10:27:42.493Z,65.62
2018-05-24T10:28:42.373Z,65.50
2018-05-24T10:29:42.143Z,67.23
2018-05-24T10:30:42.851Z,66.46
2018-05-24T10:31:42.740Z,65.88
2018-05-24T10:33:04.053Z,65.88
2018-05-24T10:34:04.063Z,66.75
2018-05-24T10:35:03.735Z,67.23
2018-05-24T10:36:04.616Z,66.46
2018-05-24T10:37:04.206Z,67.20
2018-05-24T10:38:04.224Z,67.58
2018-05-24T10:39:04.062Z,68.16
2018-05-24T10:40:03.812Z,69.23
2018-05-24T10:41:04.453Z,69.71
2018-05-24T10:42:04.156Z,70.28
2018-05-24T10:43:03.818Z,71.34
2018-05-24T10:44:04.856Z,71.54
2018-05-24T10:45:04.787Z,70.86
2018-05-24T10:46:04.489Z,71.15
2018-05-24T10:47:04.394Z,70.86
2018-05-24T10:48:05.125Z,72.02
2018-05-24T10:49:03.887Z,72.21
2018-05-24T10:50:26.120Z,71.44
2018-05-24T10:51:26.711Z,71.54
2018-05-24T10:52:48.142Z,72.21
2018-05-24T10:53:48.553Z,71.92
2018-05-24T10:54:48.239Z,70.48
2018-05-24T10:55:48.266Z,70.48
2018-05-24T10:56:48.302Z,70.96
2018-05-24T10:57:48.712Z,71.34
2018-05-24T10:59:10.374Z,71.92
2018-05-24T11:00:11.094Z,71.73
2018-05-24T11:01:53.643Z,71.25
2018-05-24T11:02:54.508Z,70.42
2018-05-24T11:03:54.055Z,70.22
2018-05-24T11:04:53.777Z,71.58
2018-05-24T11:05:55.471Z,70.42
2018-05-24T11:06:54.130Z,69.35
2018-05-24T11:07:53.917Z,69.35
2018-05-24T11:08:53.818Z,69.68
2018-05-24T11:09:55.922Z,69.00
2018-05-24T11:11:36.672Z,68.71
2018-05-24T11:13:21.234Z,67.46
2018-05-24T11:14:22.873Z,67.94
2018-05-24T11:15:21.818Z,67.55
2018-05-24T11:16:21.923Z,69.10
2018-05-24T11:17:21.690Z,68.04
2018-05-24T11:18:21.424Z,67.94
2018-05-24T11:19:21.145Z,68.46
2018-05-24T11:20:21.110Z,66.08
2018-05-24T11:22:06.622Z,64.85
2018-05-24T11:23:07.282Z,63.21
2018-05-24T11:24:07.116Z,62.56
2018-05-24T11:25:07.733Z,62.79
2018-05-24T11:26:07.371Z,61.60
2018-05-24T11:27:07.298Z,62.50
2018-05-24T11:28:07.228Z,62.76
2018-05-24T11:29:06.842Z,61.98
2018-05-24T11:30:06.775Z,61.69
2018-05-24T11:31:32.501Z,63.34
2018-05-24T11:32:30.492Z,62.37
2018-05-24T11:33:30.399Z,62.79
2018-05-24T11:34:30.532Z,63.37
2018-05-24T11:35:30.530Z,61.82
2018-05-24T11:36:30.019Z,62.21
2018-05-24T11:37:29.832Z,64.34
2018-05-24T11:38:29.451Z,63.89
2018-05-24T11:39:30.952Z,62.66
2018-05-24T11:40:29.368Z,60.62
2018-05-24T11:41:30.080Z,60.33
2018-05-24T11:42:29.710Z,60.04
2018-05-24T11:43:31.810Z,60.72
2018-05-24T11:45:14.252Z,61.11
2018-05-24T11:46:14.995Z,61.30
2018-05-24T11:47:36.241Z,62.17
2018-05-24T11:48:36.133Z,60.52
2018-05-24T11:49:36.140Z,60.33
2018-05-24T11:50:36.115Z,60.72
2018-05-24T11:51:36.734Z,61.30
2018-05-24T11:52:37.586Z,61.30
2018-05-24T11:53:36.646Z,61.30
2018-05-24T11:54:36.448Z,61.11
2018-05-24T11:55:36.391Z,61.30
2018-05-24T11:56:36.289Z,61.11
2018-05-24T11:57:36.374Z,60.69
2018-05-24T11:58:35.894Z,60.91
2018-05-24T11:59:36.496Z,60.30
2018-05-24T12:00:36.488Z,60.82
2018-05-24T12:01:37.106Z,60.33
2018-05-24T12:02:35.753Z,59.63
2018-05-24T12:03:37.333Z,59.33
2018-05-24T12:04:36.413Z,60.01
2018-05-24T12:05:36.315Z,60.50
2018-05-24T12:06:36.039Z,59.91
2018-05-24T12:07:36.058Z,61.27
2018-05-24T12:08:35.972Z,59.91
2018-05-24T12:09:35.938Z,60.01
2018-05-24T12:10:36.757Z,60.17
2018-05-24T12:11:36.733Z,61.24
2018-05-24T12:12:36.600Z,61.92
2018-05-24T12:13:36.104Z,62.18
2018-05-24T12:14:36.475Z,62.95
2018-05-24T12:15:36.525Z,64.27
2018-05-24T12:16:36.599Z,65.43
2018-05-24T12:17:36.302Z,65.98
2018-05-24T12:18:36.270Z,67.82
2018-05-24T12:19:36.076Z,68.20
2018-05-24T12:20:57.400Z,69.71
2018-05-24T12:21:58.408Z,70.29
2018-05-24T12:23:06.632Z,69.90
2018-05-24T12:23:58.255Z,70.87
2018-05-24T12:24:58.016Z,72.22
2018-05-24T12:25:57.675Z,70.97
2018-05-24T12:26:58.136Z,71.90
2018-05-24T12:27:57.677Z,70.94
2018-05-24T12:28:57.533Z,71.22
2018-05-24T12:29:57.572Z,71.22
2018-05-24T12:30:58.267Z,71.03
2018-05-24T12:31:58.232Z,71.61
2018-05-24T12:32:58.790Z,71.80
2018-05-24T12:34:19.889Z,72.42
2018-05-24T12:35:41.268Z,73.19
2018-05-24T12:36:41.984Z,74.73
2018-05-24T12:37:41.629Z,74.35
2018-05-24T12:38:43.125Z,74.64
2018-05-24T12:39:41.880Z,73.48
2018-05-24T12:40:41.733Z,74.48
2018-05-24T12:41:41.300Z,72.84
2018-05-24T12:42:42.094Z,74.10
2018-05-24T12:43:42.072Z,74.68
2018-05-24T12:44:41.708Z,75.35
2018-05-24T12:45:41.443Z,75.64
2018-05-24T12:46:42.036Z,77.19
2018-05-24T12:47:41.733Z,77.48
2018-05-24T12:48:41.636Z,77.67
2018-05-24T12:50:03.005Z,79.37
2018-05-24T12:51:05.989Z,82.07
2018-05-24T12:52:05.186Z,82.23
2018-05-24T12:53:03.324Z,82.81
2018-05-24T12:54:03.095Z,83.87
2018-05-24T12:55:27.131Z,81.16
2018-05-24T12:56:49.040Z,81.65
2018-05-24T12:58:11.111Z,84.44
2018-05-24T12:59:10.999Z,82.09
2018-05-24T13:00:32.009Z,81.18
2018-05-24T13:01:33.177Z,82.59
2018-05-24T13:02:33.008Z,81.04
2018-05-24T13:03:33.912Z,79.41
2018-05-24T13:04:32.920Z,79.79
2018-05-24T13:05:32.814Z,80.56
2018-05-24T13:06:32.522Z,76.61
2018-05-24T13:07:32.490Z,81.62
2018-05-24T13:08:32.056Z,80.18
2018-05-24T13:10:17.289Z,80.18
2018-05-24T13:11:17.599Z,79.56
2018-05-24T13:12:17.451Z,78.02
2018-05-24T13:13:17.116Z,69.79
2018-05-24T13:14:39.574Z,65.08
2018-05-24T13:15:39.713Z,60.07
2018-05-24T13:16:39.461Z,48.43
2018-05-24T13:17:40.800Z,49.84
2018-05-24T13:18:40.361Z,49.74
2018-05-24T13:19:40.499Z,42.53
2018-05-24T13:20:40.712Z,46.26
2018-05-24T13:21:39.748Z,34.53
2018-05-24T13:22:39.635Z,28.66
2018-05-24T13:24:03.105Z,40.66
2018-05-24T13:25:03.912Z,23.16
2018-05-24T13:26:02.749Z,30.47
2018-05-24T13:27:02.399Z,32.01
2018-05-24T13:28:03.603Z,34.99
2018-05-24T13:29:03.499Z,39.31
2018-05-24T13:30:03.963Z,34.89
2018-05-24T13:31:03.753Z,33.54
2018-05-24T13:32:03.248Z,30.47
2018-05-24T13:33:03.008Z,32.20
2018-05-24T13:34:03.052Z,17.11
2018-05-24T13:35:02.998Z,15.77
2018-05-24T13:36:03.268Z,30.49
2018-05-24T13:37:03.001Z,25.96
2018-05-24T13:38:04.143Z,23.75
2018-05-24T13:39:05.964Z,22.61
2018-05-24T13:40:03.031Z,20.50
2018-05-24T13:41:03.660Z,25.59
2018-05-24T13:42:03.590Z,24.73
2018-05-24T13:43:03.815Z,29.74
2018-05-24T13:44:03.098Z,40.05
2018-05-24T13:45:03.677Z,51.60
2018-05-24T13:46:04.030Z,51.50
2018-05-24T13:47:03.202Z,49.87